sensor_id;sensor_type;location;lat;lon;timestamp;pressure;altitude;pressure_sealevel;temperature;humidity
71768;BME280;59604;52.138;5.446;2023-02-13T00:00:18;103983.50;;;6.43;91.38
71768;BME280;59604;52.138;5.446;2023-02-13T00:02:46;103992.28;;;6.42;91.52
71768;BME280;59604;52.138;5.446;2023-02-13T00:05:13;103984.50;;;6.40;91.58
71768;BME280;59604;52.138;5.446;2023-02-13T00:07:39;103988.00;;;6.41;91.60
71768;BME280;59604;52.138;5.446;2023-02-13T00:10:07;103993.31;;;6.39;91.77
71768;BME280;59604;52.138;5.446;2023-02-13T00:12:34;103990.69;;;6.39;91.82
71768;BME280;59604;52.138;5.446;2023-02-13T00:15:02;103979.38;;;6.39;91.90
71768;BME280;59604;52.138;5.446;2023-02-13T00:17:29;103981.16;;;6.38;91.71
71768;BME280;59604;52.138;5.446;2023-02-13T00:19:59;103979.47;;;6.37;91.71
71768;BME280;59604;52.138;5.446;2023-02-13T00:22:26;103984.69;;;6.37;91.59
71768;BME280;59604;52.138;5.446;2023-02-13T00:24:53;103977.75;;;6.36;91.82
71768;BME280;59604;52.138;5.446;2023-02-13T00:27:19;103976.84;;;6.37;91.98
71768;BME280;59604;52.138;5.446;2023-02-13T00:29:46;103970.75;;;6.37;92.16
71768;BME280;59604;52.138;5.446;2023-02-13T00:32:13;103977.75;;;6.36;92.12
71768;BME280;59604;52.138;5.446;2023-02-13T00:34:40;103967.38;;;6.35;92.00
71768;BME280;59604;52.138;5.446;2023-02-13T00:37:07;103968.31;;;6.34;91.84
71768;BME280;59604;52.138;5.446;2023-02-13T00:39:34;103969.31;;;6.31;91.70
71768;BME280;59604;52.138;5.446;2023-02-13T00:42:01;103972.78;;;6.32;91.85
71768;BME280;59604;52.138;5.446;2023-02-13T00:44:27;103969.31;;;6.31;92.14
71768;BME280;59604;52.138;5.446;2023-02-13T00:46:54;103968.47;;;6.31;92.36
71768;BME280;59604;52.138;5.446;2023-02-13T00:49:21;103969.38;;;6.29;92.26
71768;BME280;59604;52.138;5.446;2023-02-13T00:51:47;103961.72;;;6.26;92.54
71768;BME280;59604;52.138;5.446;2023-02-13T00:54:14;103959.94;;;6.27;92.26
71768;BME280;59604;52.138;5.446;2023-02-13T00:56:41;103967.78;;;6.27;92.46
71768;BME280;59604;52.138;5.446;2023-02-13T00:59:08;103971.16;;;6.29;92.20
71768;BME280;59604;52.138;5.446;2023-02-13T01:01:34;103960.69;;;6.29;92.65
71768;BME280;59604;52.138;5.446;2023-02-13T01:04:01;103957.22;;;6.28;92.31
71768;BME280;59604;52.138;5.446;2023-02-13T01:06:28;103961.53;;;6.29;92.68
71768;BME280;59604;52.138;5.446;2023-02-13T01:08:55;103960.78;;;6.27;92.04
71768;BME280;59604;52.138;5.446;2023-02-13T01:11:22;103965.16;;;6.27;92.51
71768;BME280;59604;52.138;5.446;2023-02-13T01:13:48;103965.06;;;6.28;92.51
71768;BME280;59604;52.138;5.446;2023-02-13T01:16:15;103973.03;;;6.27;92.61
71768;BME280;59604;52.138;5.446;2023-02-13T01:18:44;103961.72;;;6.26;92.31
71768;BME280;59604;52.138;5.446;2023-02-13T01:21:18;103963.41;;;6.27;92.30
71768;BME280;59604;52.138;5.446;2023-02-13T01:23:46;103962.63;;;6.25;92.59
71768;BME280;59604;52.138;5.446;2023-02-13T01:26:21;103966.28;;;6.23;92.92
71768;BME280;59604;52.138;5.446;2023-02-13T01:28:53;103964.41;;;6.25;92.32
71768;BME280;59604;52.138;5.446;2023-02-13T01:31:22;103961.72;;;6.26;93.00
71768;BME280;59604;52.138;5.446;2023-02-13T01:33:50;103958.25;;;6.26;92.33
71768;BME280;59604;52.138;5.446;2023-02-13T01:36:17;103955.53;;;6.27;92.62
71768;BME280;59604;52.138;5.446;2023-02-13T01:38:43;103957.31;;;6.27;92.48
71768;BME280;59604;52.138;5.446;2023-02-13T01:41:10;103959.84;;;6.28;92.39
71768;BME280;59604;52.138;5.446;2023-02-13T01:43:51;103970.31;;;6.28;92.72
71768;BME280;59604;52.138;5.446;2023-02-13T01:46:45;103959.16;;;6.25;92.68
71768;BME280;59604;52.138;5.446;2023-02-13T01:49:22;103960.00;;;6.25;92.74
71768;BME280;59604;52.138;5.446;2023-02-13T01:51:53;103955.69;;;6.24;92.24
71768;BME280;59604;52.138;5.446;2023-02-13T01:54:27;103950.63;;;6.21;92.40
71768;BME280;59604;52.138;5.446;2023-02-13T01:57:01;103942.94;;;6.18;92.48
71768;BME280;59604;52.138;5.446;2023-02-13T01:59:35;103953.41;;;6.18;93.18
71768;BME280;59604;52.138;5.446;2023-02-13T02:02:03;103948.34;;;6.15;93.08
71768;BME280;59604;52.138;5.446;2023-02-13T02:04:32;103946.66;;;6.14;93.10
71768;BME280;59604;52.138;5.446;2023-02-13T02:07:16;103947.59;;;6.13;93.04
71768;BME280;59604;52.138;5.446;2023-02-13T02:09:48;103934.41;;;6.15;92.82
71768;BME280;59604;52.138;5.446;2023-02-13T02:12:33;103939.63;;;6.15;93.02
71768;BME280;59604;52.138;5.446;2023-02-13T02:15:16;103944.97;;;6.13;93.08
71768;BME280;59604;52.138;5.446;2023-02-13T02:17:42;103938.03;;;6.12;93.10
71768;BME280;59604;52.138;5.446;2023-02-13T02:37:04;103942.25;;;6.15;93.66
71768;BME280;59604;52.138;5.446;2023-02-13T02:39:42;103946.59;;;6.16;93.27
71768;BME280;59604;52.138;5.446;2023-02-13T02:55:47;103934.34;;;6.16;93.63
71768;BME280;59604;52.138;5.446;2023-02-13T02:58:27;103924.72;;;6.17;93.58
71768;BME280;59604;52.138;5.446;2023-02-13T03:01:22;103927.22;;;6.18;93.37
71768;BME280;59604;52.138;5.446;2023-02-13T03:04:17;103928.25;;;6.16;93.44
71768;BME280;59604;52.138;5.446;2023-02-13T03:07:06;103925.81;;;6.13;93.28
71768;BME280;59604;52.138;5.446;2023-02-13T03:09:41;103916.34;;;6.10;93.65
71768;BME280;59604;52.138;5.446;2023-02-13T03:12:47;103924.34;;;6.07;93.63
71768;BME280;59604;52.138;5.446;2023-02-13T03:15:36;103928.69;;;6.08;93.57
71768;BME280;59604;52.138;5.446;2023-02-13T03:18:24;103931.09;;;6.11;93.98
71768;BME280;59604;52.138;5.446;2023-02-13T03:21:15;103932.81;;;6.12;93.88
71768;BME280;59604;52.138;5.446;2023-02-13T03:24:07;103930.19;;;6.12;94.03
71768;BME280;59604;52.138;5.446;2023-02-13T03:26:57;103929.41;;;6.10;94.24
71768;BME280;59604;52.138;5.446;2023-02-13T03:29:55;103939.88;;;6.10;94.33
71768;BME280;59604;52.138;5.446;2023-02-13T03:38:42;103925.81;;;6.13;93.96
71768;BME280;59604;52.138;5.446;2023-02-13T03:41:24;103926.66;;;6.13;94.05
71768;BME280;59604;52.138;5.446;2023-02-13T03:46:44;103931.78;;;6.15;94.03
71768;BME280;59604;52.138;5.446;2023-02-13T03:49:25;103929.16;;;6.15;94.08
71768;BME280;59604;52.138;5.446;2023-02-13T03:54:54;103933.50;;;6.16;94.17
71768;BME280;59604;52.138;5.446;2023-02-13T03:57:42;103931.78;;;6.15;94.10
71768;BME280;59604;52.138;5.446;2023-02-13T04:00:34;103928.56;;;6.10;94.03
71768;BME280;59604;52.138;5.446;2023-02-13T04:03:14;103931.19;;;6.10;94.37
71768;BME280;59604;52.138;5.446;2023-02-13T04:05:48;103925.22;;;6.08;94.22
71768;BME280;59604;52.138;5.446;2023-02-13T04:08:17;103929.50;;;6.09;94.60
71768;BME280;59604;52.138;5.446;2023-02-13T04:10:55;103918.13;;;6.10;94.71
71768;BME280;59604;52.138;5.446;2023-02-13T04:13:37;103925.97;;;6.10;94.95
71768;BME280;59604;52.138;5.446;2023-02-13T04:16:18;103920.03;;;6.06;95.22
71768;BME280;59604;52.138;5.446;2023-02-13T04:18:47;103923.66;;;6.03;95.54
71768;BME280;59604;52.138;5.446;2023-02-13T04:21:15;103919.38;;;6.02;95.43
71768;BME280;59604;52.138;5.446;2023-02-13T04:23:42;103917.53;;;6.04;95.77
71768;BME280;59604;52.138;5.446;2023-02-13T04:26:15;103930.50;;;6.06;95.48
71768;BME280;59604;52.138;5.446;2023-02-13T04:28:43;103926.13;;;6.07;95.46
71768;BME280;59604;52.138;5.446;2023-02-13T04:31:10;103926.13;;;6.07;94.93
71768;BME280;59604;52.138;5.446;2023-02-13T04:33:36;103925.28;;;6.06;95.38
71768;BME280;59604;52.138;5.446;2023-02-13T04:36:04;103921.81;;;6.05;95.26
71768;BME280;59604;52.138;5.446;2023-02-13T04:38:31;103913.19;;;6.03;94.93
71768;BME280;59604;52.138;5.446;2023-02-13T04:40:57;103922.75;;;6.04;95.18
71768;BME280;59604;52.138;5.446;2023-02-13T04:43:25;103924.59;;;6.02;95.14
71768;BME280;59604;52.138;5.446;2023-02-13T04:45:52;103918.63;;;6.00;95.29
71768;BME280;59604;52.138;5.446;2023-02-13T04:48:19;103924.75;;;5.99;95.63
71768;BME280;59604;52.138;5.446;2023-02-13T04:50:46;103916.91;;;5.99;96.27
71768;BME280;59604;52.138;5.446;2023-02-13T04:53:13;103910.69;;;6.02;96.26
71768;BME280;59604;52.138;5.446;2023-02-13T04:55:40;103911.50;;;6.02;96.72
71768;BME280;59604;52.138;5.446;2023-02-13T04:58:07;103915.91;;;6.02;96.56
71768;BME280;59604;52.138;5.446;2023-02-13T05:00:34;103912.44;;;6.01;96.46
71768;BME280;59604;52.138;5.446;2023-02-13T05:03:05;103911.50;;;6.02;96.53
71768;BME280;59604;52.138;5.446;2023-02-13T05:05:33;103908.06;;;6.02;96.61
71768;BME280;59604;52.138;5.446;2023-02-13T05:08:00;103900.31;;;6.00;96.90
71768;BME280;59604;52.138;5.446;2023-02-13T05:10:27;103898.69;;;5.98;96.65
71768;BME280;59604;52.138;5.446;2023-02-13T05:12:54;103894.28;;;5.98;96.99
71768;BME280;59604;52.138;5.446;2023-02-13T05:15:21;103897.84;;;5.97;97.03
71768;BME280;59604;52.138;5.446;2023-02-13T05:17:49;103895.06;;;6.00;97.26
71768;BME280;59604;52.138;5.446;2023-02-13T05:20:16;103897.59;;;6.02;97.76
71768;BME280;59604;52.138;5.446;2023-02-13T05:22:48;103894.97;;;6.02;96.86
71768;BME280;59604;52.138;5.446;2023-02-13T05:25:35;103895.97;;;5.99;97.33
71768;BME280;59604;52.138;5.446;2023-02-13T05:28:03;103889.91;;;5.99;96.85
71768;BME280;59604;52.138;5.446;2023-02-13T05:30:30;103896.91;;;5.98;97.46
71768;BME280;59604;52.138;5.446;2023-02-13T05:32:57;103889.16;;;5.97;97.59
71768;BME280;59604;52.138;5.446;2023-02-13T05:35:23;103894.28;;;5.98;97.63
71768;BME280;59604;52.138;5.446;2023-02-13T05:37:51;103889.91;;;5.99;97.31
71768;BME280;59604;52.138;5.446;2023-02-13T05:40:18;103889.06;;;5.98;97.59
71768;BME280;59604;52.138;5.446;2023-02-13T05:42:47;103887.28;;;5.99;97.39
71768;BME280;59604;52.138;5.446;2023-02-13T05:45:14;103886.53;;;5.97;97.83
71768;BME280;59604;52.138;5.446;2023-02-13T05:47:41;103888.22;;;5.98;97.98
71768;BME280;59604;52.138;5.446;2023-02-13T05:50:08;103892.50;;;5.99;97.85
71768;BME280;59604;52.138;5.446;2023-02-13T05:52:35;103895.06;;;6.00;97.83
71768;BME280;59604;52.138;5.446;2023-02-13T05:55:02;103894.97;;;6.02;98.14
71768;BME280;59604;52.138;5.446;2023-02-13T05:57:28;103886.28;;;6.01;98.00
71768;BME280;59604;52.138;5.446;2023-02-13T05:59:55;103894.13;;;6.01;97.79
71768;BME280;59604;52.138;5.446;2023-02-13T06:02:22;103893.28;;;6.01;98.05
71768;BME280;59604;52.138;5.446;2023-02-13T06:04:48;103891.59;;;6.00;97.67
71768;BME280;59604;52.138;5.446;2023-02-13T06:07:15;103889.84;;;6.00;98.15
71768;BME280;59604;52.138;5.446;2023-02-13T06:09:42;103895.06;;;6.00;98.21
71768;BME280;59604;52.138;5.446;2023-02-13T06:12:08;103892.44;;;6.00;97.83
71768;BME280;59604;52.138;5.446;2023-02-13T06:14:35;103887.38;;;5.97;97.94
71768;BME280;59604;52.138;5.446;2023-02-13T06:17:02;103886.59;;;5.95;98.30
71768;BME280;59604;52.138;5.446;2023-02-13T06:19:28;103898.84;;;5.95;97.94
71768;BME280;59604;52.138;5.446;2023-02-13T06:21:55;103890.16;;;5.94;98.46
71768;BME280;59604;52.138;5.446;2023-02-13T06:24:22;103889.22;;;5.95;98.91
71768;BME280;59604;52.138;5.446;2023-02-13T06:26:49;103889.91;;;5.99;98.85
71768;BME280;59604;52.138;5.446;2023-02-13T06:29:16;103891.59;;;6.00;98.30
71768;BME280;59604;52.138;5.446;2023-02-13T06:31:43;103896.81;;;6.00;98.84
71768;BME280;59604;52.138;5.446;2023-02-13T06:34:09;103897.69;;;6.00;98.34
71768;BME280;59604;52.138;5.446;2023-02-13T06:36:36;103897.59;;;6.02;99.05
71768;BME280;59604;52.138;5.446;2023-02-13T06:39:04;103899.28;;;6.03;98.55
71768;BME280;59604;52.138;5.446;2023-02-13T06:41:30;103899.28;;;6.03;98.74
71768;BME280;59604;52.138;5.446;2023-02-13T06:43:57;103894.19;;;6.00;98.74
71768;BME280;59604;52.138;5.446;2023-02-13T06:46:24;103902.97;;;5.99;98.57
71768;BME280;59604;52.138;5.446;2023-02-13T06:48:51;103892.63;;;5.97;99.07
71768;BME280;59604;52.138;5.446;2023-02-13T06:51:21;103900.47;;;5.97;98.65
71768;BME280;59604;52.138;5.446;2023-02-13T06:53:48;103901.38;;;5.96;99.16
71768;BME280;59604;52.138;5.446;2023-02-13T06:56:14;103901.47;;;5.95;99.24
71768;BME280;59604;52.138;5.446;2023-02-13T06:58:41;103906.59;;;5.96;98.95
71768;BME280;59604;52.138;5.446;2023-02-13T07:01:07;103897.91;;;5.96;99.16
71768;BME280;59604;52.138;5.446;2023-02-13T07:03:34;103909.41;;;5.93;99.75
71768;BME280;59604;52.138;5.446;2023-02-13T07:06:02;103920.72;;;5.94;99.77
71768;BME280;59604;52.138;5.446;2023-02-13T07:08:28;103917.84;;;5.98;99.99
71768;BME280;59604;52.138;5.446;2023-02-13T07:10:56;103919.63;;;5.98;99.80
71768;BME280;59604;52.138;5.446;2023-02-13T07:13:23;103915.31;;;5.97;99.75
71768;BME280;59604;52.138;5.446;2023-02-13T07:15:49;103915.38;;;5.95;99.61
71768;BME280;59604;52.138;5.446;2023-02-13T07:18:16;103917.84;;;5.98;99.95
71768;BME280;59604;52.138;5.446;2023-02-13T07:20:43;103923.75;;;6.02;99.89
71768;BME280;59604;52.138;5.446;2023-02-13T07:23:09;103926.38;;;6.02;100.00
71768;BME280;59604;52.138;5.446;2023-02-13T07:25:36;103922.75;;;6.04;99.70
71768;BME280;59604;52.138;5.446;2023-02-13T07:28:04;103921.81;;;6.05;100.00
71768;BME280;59604;52.138;5.446;2023-02-13T07:30:33;103920.88;;;6.07;100.00
71768;BME280;59604;52.138;5.446;2023-02-13T07:33:01;103912.19;;;6.06;99.90
71768;BME280;59604;52.138;5.446;2023-02-13T07:35:28;103914.75;;;6.08;99.78
71768;BME280;59604;52.138;5.446;2023-02-13T07:37:55;103911.19;;;6.09;99.82
71768;BME280;59604;52.138;5.446;2023-02-13T07:40:22;103916.34;;;6.10;100.00
71768;BME280;59604;52.138;5.446;2023-02-13T07:42:49;103914.56;;;6.11;100.00
71768;BME280;59604;52.138;5.446;2023-02-13T07:45:16;103916.94;;;6.15;100.00
71768;BME280;59604;52.138;5.446;2023-02-13T07:47:42;103913.41;;;6.16;100.00
71768;BME280;59604;52.138;5.446;2023-02-13T07:50:10;103916.84;;;6.17;100.00
71768;BME280;59604;52.138;5.446;2023-02-13T07:52:37;103920.06;;;6.22;100.00
71768;BME280;59604;52.138;5.446;2023-02-13T07:55:05;103923.28;;;6.27;100.00
71768;BME280;59604;52.138;5.446;2023-02-13T07:57:32;103921.19;;;6.34;100.00
71768;BME280;59604;52.138;5.446;2023-02-13T07:59:59;103925.31;;;6.38;100.00
71768;BME280;59604;52.138;5.446;2023-02-13T08:02:25;103926.91;;;6.40;100.00
71768;BME280;59604;52.138;5.446;2023-02-13T08:04:52;103936.31;;;6.44;100.00
71768;BME280;59604;52.138;5.446;2023-02-13T08:07:19;103931.72;;;6.48;100.00
71768;BME280;59604;52.138;5.446;2023-02-13T08:09:46;103934.94;;;6.53;100.00
71768;BME280;59604;52.138;5.446;2023-02-13T08:12:34;103940.75;;;6.58;100.00
71768;BME280;59604;52.138;5.446;2023-02-13T08:15:01;103946.69;;;6.62;100.00
71768;BME280;59604;52.138;5.446;2023-02-13T08:17:28;103938.56;;;6.66;100.00
71768;BME280;59604;52.138;5.446;2023-02-13T08:19:54;103946.25;;;6.69;100.00
71768;BME280;59604;52.138;5.446;2023-02-13T08:22:21;103954.72;;;6.74;100.00
71768;BME280;59604;52.138;5.446;2023-02-13T08:24:48;103947.44;;;6.80;100.00
71768;BME280;59604;52.138;5.446;2023-02-13T08:27:14;103950.72;;;6.83;99.97
71768;BME280;59604;52.138;5.446;2023-02-13T08:29:41;103943.44;;;6.88;100.00
71768;BME280;59604;52.138;5.446;2023-02-13T08:32:08;103944.03;;;6.93;100.00
71768;BME280;59604;52.138;5.446;2023-02-13T08:34:35;103943.59;;;7.01;100.00
71768;BME280;59604;52.138;5.446;2023-02-13T08:37:02;103951.13;;;7.07;100.00
71768;BME280;59604;52.138;5.446;2023-02-13T08:39:29;103943.81;;;7.12;99.86
71768;BME280;59604;52.138;5.446;2023-02-13T08:41:55;103953.97;;;7.18;99.56
71768;BME280;59604;52.138;5.446;2023-02-13T08:44:22;103948.28;;;7.26;99.30
71768;BME280;59604;52.138;5.446;2023-02-13T08:46:49;103942.75;;;7.31;99.14
71768;BME280;59604;52.138;5.446;2023-02-13T08:49:16;103943.16;;;7.39;98.88
71768;BME280;59604;52.138;5.446;2023-02-13T08:51:42;103946.25;;;7.45;99.41
71768;BME280;59604;52.138;5.446;2023-02-13T08:54:09;103946.56;;;7.55;99.14
71768;BME280;59604;52.138;5.446;2023-02-13T08:56:36;103944.41;;;7.62;98.63
71768;BME280;59604;52.138;5.446;2023-02-13T08:59:02;103948.34;;;7.69;98.13
71768;BME280;59604;52.138;5.446;2023-02-13T09:01:33;103948.09;;;7.73;98.17
71768;BME280;59604;52.138;5.446;2023-02-13T09:04:01;103942.44;;;7.80;97.65
71768;BME280;59604;52.138;5.446;2023-02-13T09:06:27;103947.34;;;7.86;97.52
71768;BME280;59604;52.138;5.446;2023-02-13T09:08:54;103939.00;;;7.93;97.06
71768;BME280;59604;52.138;5.446;2023-02-13T09:11:21;103936.75;;;8.02;96.80
71768;BME280;59604;52.138;5.446;2023-02-13T09:13:52;103941.63;;;8.08;96.49
71768;BME280;59604;52.138;5.446;2023-02-13T09:16:19;103935.13;;;8.13;96.25
71768;BME280;59604;52.138;5.446;2023-02-13T09:18:51;103940.66;;;8.23;96.18
71768;BME280;59604;52.138;5.446;2023-02-13T09:21:19;103933.06;;;8.33;95.89
71768;BME280;59604;52.138;5.446;2023-02-13T09:23:46;103947.13;;;8.46;95.55
71768;BME280;59604;52.138;5.446;2023-02-13T09:26:14;103946.94;;;8.49;94.57
71768;BME280;59604;52.138;5.446;2023-02-13T09:28:45;103934.06;;;8.59;94.27
71768;BME280;59604;52.138;5.446;2023-02-13T09:31:16;103937.34;;;8.62;94.11
71768;BME280;59604;52.138;5.446;2023-02-13T09:33:47;103942.47;;;8.64;92.99
71768;BME280;59604;52.138;5.446;2023-02-13T09:36:16;103942.19;;;8.68;93.12
71768;BME280;59604;52.138;5.446;2023-02-13T09:38:53;103935.50;;;8.77;92.83
71768;BME280;59604;52.138;5.446;2023-02-13T09:44:00;103933.06;;;8.74;92.45
71768;BME280;59604;52.138;5.446;2023-02-13T09:46:32;103933.31;;;8.84;92.15
71768;BME280;59604;52.138;5.446;2023-02-13T09:49:04;103933.66;;;8.92;92.17
71768;BME280;59604;52.138;5.446;2023-02-13T09:51:33;103938.50;;;8.98;91.13
71768;BME280;59604;52.138;5.446;2023-02-13T09:54:06;103936.09;;;8.95;91.08
71768;BME280;59604;52.138;5.446;2023-02-13T09:56:55;103932.81;;;8.91;90.73
71768;BME280;59604;52.138;5.446;2023-02-13T09:59:49;103938.09;;;8.91;89.86
71768;BME280;59604;52.138;5.446;2023-02-13T10:07:38;103934.66;;;9.16;89.67
71768;BME280;59604;52.138;5.446;2023-02-13T10:12:53;103938.56;;;9.24;89.61
71768;BME280;59604;52.138;5.446;2023-02-13T10:16:06;103936.03;;;9.22;89.61
71768;BME280;59604;52.138;5.446;2023-02-13T10:18:50;103943.53;;;9.28;89.28
71768;BME280;59604;52.138;5.446;2023-02-13T10:21:21;103932.56;;;9.34;88.20
71768;BME280;59604;52.138;5.446;2023-02-13T10:24:15;103936.78;;;9.50;88.92
71768;BME280;59604;52.138;5.446;2023-02-13T10:26:45;103937.66;;;9.50;86.83
71768;BME280;59604;52.138;5.446;2023-02-13T10:32:02;103938.16;;;9.30;87.52
71768;BME280;59604;52.138;5.446;2023-02-13T10:34:35;103933.09;;;9.27;87.40
71768;BME280;59604;52.138;5.446;2023-02-13T10:37:19;103936.38;;;9.30;87.49
71768;BME280;59604;52.138;5.446;2023-02-13T10:39:50;103926.78;;;9.29;87.03
71768;BME280;59604;52.138;5.446;2023-02-13T10:42:30;103926.47;;;9.34;86.66
71768;BME280;59604;52.138;5.446;2023-02-13T10:51:39;103920.69;;;9.41;87.09
71768;BME280;59604;52.138;5.446;2023-02-13T11:00:09;103925.22;;;9.39;86.60
71768;BME280;59604;52.138;5.446;2023-02-13T11:02:35;103914.38;;;9.44;87.00
71768;BME280;59604;52.138;5.446;2023-02-13T11:05:21;103917.66;;;9.48;86.12
71768;BME280;59604;52.138;5.446;2023-02-13T11:07:48;103913.66;;;9.55;86.75
71768;BME280;59604;52.138;5.446;2023-02-13T11:10:21;103898.28;;;9.61;86.82
71768;BME280;59604;52.138;5.446;2023-02-13T11:12:48;103905.88;;;9.66;86.03
71768;BME280;59604;52.138;5.446;2023-02-13T11:17:47;103903.34;;;9.77;86.23
71768;BME280;59604;52.138;5.446;2023-02-13T11:20:33;103894.25;;;9.81;85.56
71768;BME280;59604;52.138;5.446;2023-02-13T11:28:58;103893.41;;;9.93;85.33
71768;BME280;59604;52.138;5.446;2023-02-13T11:31:28;103895.41;;;9.90;85.09
71768;BME280;59604;52.138;5.446;2023-02-13T11:33:57;103894.47;;;9.91;85.22
71768;BME280;59604;52.138;5.446;2023-02-13T11:36:28;103889.84;;;9.95;85.67
71768;BME280;59604;52.138;5.446;2023-02-13T11:38:57;103889.72;;;9.96;85.25
71768;BME280;59604;52.138;5.446;2023-02-13T11:41:24;103875.28;;;10.02;84.97
71768;BME280;59604;52.138;5.446;2023-02-13T11:43:59;103881.06;;;10.07;85.38
71768;BME280;59604;52.138;5.446;2023-02-13T11:46:29;103881.78;;;10.09;84.80
71768;BME280;59604;52.138;5.446;2023-02-13T11:49:00;103887.16;;;10.07;84.10
71768;BME280;59604;52.138;5.446;2023-02-13T11:52:11;103873.03;;;10.08;83.75
71768;BME280;59604;52.138;5.446;2023-02-13T11:55:01;103876.81;;;10.17;83.96
71768;BME280;59604;52.138;5.446;2023-02-13T11:57:35;103863.53;;;10.19;83.17
71768;BME280;59604;52.138;5.446;2023-02-13T12:02:56;103851.19;;;10.32;83.11
71768;BME280;59604;52.138;5.446;2023-02-13T12:05:25;103850.72;;;10.38;82.52
71768;BME280;59604;52.138;5.446;2023-02-13T12:07:58;103853.75;;;10.45;82.44
71768;BME280;59604;52.138;5.446;2023-02-13T12:10:28;103849.00;;;10.50;81.93
71768;BME280;59604;52.138;5.446;2023-02-13T12:13:14;103851.28;;;10.54;82.02
71768;BME280;59604;52.138;5.446;2023-02-13T12:15:45;103845.66;;;10.59;81.70
71768;BME280;59604;52.138;5.446;2023-02-13T12:18:39;103832.41;;;10.60;81.52
71768;BME280;59604;52.138;5.446;2023-02-13T12:46:49;103825.03;;;10.88;78.98
71768;BME280;59604;52.138;5.446;2023-02-13T12:52:38;103828.16;;;11.04;79.24
71768;BME280;59604;52.138;5.446;2023-02-13T12:55:21;103827.84;;;11.09;79.33
71768;BME280;59604;52.138;5.446;2023-02-13T12:58:00;103825.22;;;11.20;78.98
71768;BME280;59604;52.138;5.446;2023-02-13T13:12:07;103803.38;;;11.29;77.89
71768;BME280;59604;52.138;5.446;2023-02-13T13:19:55;103799.53;;;11.33;77.43
71768;BME280;59604;52.138;5.446;2023-02-13T13:22:33;103793.19;;;11.36;78.84
71768;BME280;59604;52.138;5.446;2023-02-13T13:25:20;103785.50;;;11.33;77.81
71768;BME280;59604;52.138;5.446;2023-02-13T13:27:57;103785.50;;;11.33;77.95
71768;BME280;59604;52.138;5.446;2023-02-13T13:30:29;103780.97;;;11.35;77.60
71768;BME280;59604;52.138;5.446;2023-02-13T13:35:33;103777.50;;;11.34;77.00
71768;BME280;59604;52.138;5.446;2023-02-13T13:41:26;103763.09;;;11.39;77.26
71768;BME280;59604;52.138;5.446;2023-02-13T13:49:50;103762.56;;;11.56;78.17
71768;BME280;59604;52.138;5.446;2023-02-13T13:54:48;103755.84;;;11.63;76.95
71768;BME280;59604;52.138;5.446;2023-02-13T13:57:19;103755.63;;;11.55;75.15
71768;BME280;59604;52.138;5.446;2023-02-13T14:05:00;103753.94;;;11.54;75.98
71768;BME280;59604;52.138;5.446;2023-02-13T14:07:34;103751.78;;;11.59;75.99
71768;BME280;59604;52.138;5.446;2023-02-13T14:10:03;103749.97;;;11.59;75.67
71768;BME280;59604;52.138;5.446;2023-02-13T14:12:35;103742.91;;;11.60;75.42
71768;BME280;59604;52.138;5.446;2023-02-13T14:15:02;103735.00;;;11.60;75.61
71768;BME280;59604;52.138;5.446;2023-02-13T14:22:49;103732.81;;;11.65;74.85
71768;BME280;59604;52.138;5.446;2023-02-13T14:25:26;103737.94;;;11.67;75.95
71768;BME280;59604;52.138;5.446;2023-02-13T14:28:02;103737.00;;;11.68;75.45
71768;BME280;59604;52.138;5.446;2023-02-13T14:30:34;103730.63;;;11.70;75.45
71768;BME280;59604;52.138;5.446;2023-02-13T14:33:04;103734.00;;;11.72;77.12
71768;BME280;59604;52.138;5.446;2023-02-13T14:35:36;103735.56;;;11.75;76.30
71768;BME280;59604;52.138;5.446;2023-02-13T14:38:05;103732.91;;;11.75;75.22
71768;BME280;59604;52.138;5.446;2023-02-13T14:40:47;103735.81;;;11.72;75.05
71768;BME280;59604;52.138;5.446;2023-02-13T14:43:29;103729.94;;;11.68;75.12
71768;BME280;59604;52.138;5.446;2023-02-13T14:49:06;103726.78;;;11.63;75.25
71768;BME280;59604;52.138;5.446;2023-02-13T14:51:39;103719.84;;;11.62;75.35
71768;BME280;59604;52.138;5.446;2023-02-13T14:54:36;103723.22;;;11.64;75.30
71768;BME280;59604;52.138;5.446;2023-02-13T14:57:19;103717.94;;;11.64;75.59
71768;BME280;59604;52.138;5.446;2023-02-13T14:59:49;103721.78;;;11.60;74.98
71768;BME280;59604;52.138;5.446;2023-02-13T15:02:29;103718.66;;;11.55;75.26
71768;BME280;59604;52.138;5.446;2023-02-13T15:05:14;103714.59;;;11.51;75.84
71768;BME280;59604;52.138;5.446;2023-02-13T15:07:58;103718.06;;;11.51;75.89
71768;BME280;59604;52.138;5.446;2023-02-13T15:12:59;103717.25;;;11.40;76.09
71768;BME280;59604;52.138;5.446;2023-02-13T15:15:30;103723.75;;;11.35;77.16
71768;BME280;59604;52.138;5.446;2023-02-13T15:18:06;103723.16;;;11.32;76.28
71768;BME280;59604;52.138;5.446;2023-02-13T15:20:35;103719.31;;;11.25;77.11
71768;BME280;59604;52.138;5.446;2023-02-13T15:23:04;103718.34;;;11.15;76.58
71768;BME280;59604;52.138;5.446;2023-02-13T15:25:36;103720.88;;;11.05;77.24
71768;BME280;59604;52.138;5.446;2023-02-13T15:28:06;103722.19;;;10.99;77.30
71768;BME280;59604;52.138;5.446;2023-02-13T15:30:35;103720.88;;;10.94;77.42
71768;BME280;59604;52.138;5.446;2023-02-13T15:33:15;103716.19;;;10.86;77.39
71768;BME280;59604;52.138;5.446;2023-02-13T15:35:42;103704.94;;;10.84;77.78
71768;BME280;59604;52.138;5.446;2023-02-13T15:38:30;103708.75;;;10.80;78.40
71768;BME280;59604;52.138;5.446;2023-02-13T15:41:06;103713.53;;;10.75;78.48
71768;BME280;59604;52.138;5.446;2023-02-13T15:43:45;103714.97;;;10.68;79.00
71768;BME280;59604;52.138;5.446;2023-02-13T15:46:24;103711.72;;;10.64;79.90
71768;BME280;59604;52.138;5.446;2023-02-13T15:48:53;103706.94;;;10.58;79.81
71768;BME280;59604;52.138;5.446;2023-02-13T15:51:23;103707.16;;;10.55;79.91
71768;BME280;59604;52.138;5.446;2023-02-13T15:53:55;103706.56;;;10.51;80.09
71768;BME280;59604;52.138;5.446;2023-02-13T15:56:22;103698.41;;;10.43;80.57